Time;durP1;ratioP1;P1;durP2;ratioP2;P2;SDS_P1;SDS_P2;PMS_P1;PMS_P2;Temp;Humidity;BMP_temperature;BMP_pressure;BME280_temperature;BME280_humidity;BME280_pressure;Samples;Min_cycle;Max_cycle;Signal;HPM_P1;HPM_P2
2024/03/23 00:00:06;;;;;;;45.70;25.60;;;;;;;2.14;100.00;100701.36;105922;1253;62046;-81
2024/03/23 00:02:40;;;;;;;43.20;22.30;;;;;;;2.12;100.00;100697.42;105936;1259;62143;-81
2024/03/23 00:05:08;;;;;;;39.90;23.80;;;;;;;2.10;100.00;100700.52;105923;1254;75529;-76
2024/03/23 00:07:36;;;;;;;41.80;22.80;;;;;;;2.10;100.00;100695.88;107247;1254;69433;-77
2024/03/23 00:10:04;;;;;;;38.70;21.10;;;;;;;2.08;100.00;100698.21;105966;1254;72749;-76
2024/03/23 00:12:31;;;;;;;49.60;26.80;;;;;;;2.05;100.00;100694.50;106115;1257;62076;-81
2024/03/23 00:14:59;;;;;;;46.80;24.80;;;;;;;2.00;100.00;100696.39;106136;1254;62152;-76
2024/03/23 00:17:27;;;;;;;42.10;22.40;;;;;;;2.00;100.00;100694.86;106065;1254;74161;-79
2024/03/23 00:19:54;;;;;;;49.40;26.30;;;;;;;1.99;100.00;100692.05;105900;1254;68871;-81
2024/03/23 00:22:22;;;;;;;41.80;22.50;;;;;;;1.99;100.00;100691.71;105810;1260;70824;-76
2024/03/23 00:24:49;;;;;;;44.60;24.40;;;;;;;2.01;100.00;100690.58;106435;1259;62094;-75
2024/03/23 00:27:17;;;;;;;44.50;24.70;;;;;;;2.04;100.00;100687.08;105981;1252;61989;-75
2024/03/23 00:29:44;;;;;;;39.60;22.90;;;;;;;2.06;100.00;100679.77;106256;1253;75453;-81
2024/03/23 00:32:12;;;;;;;42.70;23.50;;;;;;;2.04;100.00;100680.52;105931;1254;68309;-76
2024/03/23 00:34:40;;;;;;;45.80;24.80;;;;;;;2.03;100.00;100678.50;106052;1256;72633;-76
2024/03/23 00:37:07;;;;;;;44.00;23.90;;;;;;;2.03;100.00;100676.59;105878;1259;62104;-81
2024/03/23 00:39:35;;;;;;;37.30;21.00;;;;;;;2.11;100.00;100677.86;106492;1254;61937;-80
2024/03/23 00:42:02;;;;;;;36.00;20.90;;;;;;;2.24;100.00;100679.45;105998;1254;74589;-75
2024/03/23 00:44:30;;;;;;;37.00;21.70;;;;;;;2.32;100.00;100679.83;106176;1258;67117;-76
2024/03/23 00:46:57;;;;;;;39.50;22.20;;;;;;;2.35;100.00;100680.59;106096;1253;73522;-76
2024/03/23 00:49:25;;;;;;;35.70;21.50;;;;;;;2.37;100.00;100673.30;105987;1254;62156;-76
2024/03/23 00:51:53;;;;;;;35.40;20.00;;;;;;;2.39;100.00;100672.98;106177;1254;62101;-81
2024/03/23 00:54:20;;;;;;;36.20;19.30;;;;;;;2.43;100.00;100668.58;106121;1257;75435;-81
2024/03/23 00:56:48;;;;;;;35.40;19.90;;;;;;;2.45;100.00;100664.55;107733;1252;67162;-76
2024/03/23 00:59:15;;;;;;;34.90;19.20;;;;;;;2.43;100.00;100655.02;105933;1259;71838;-75
2024/03/23 01:01:43;;;;;;;39.20;19.70;;;;;;;2.43;100.00;100654.39;106045;1257;61974;-76
2024/03/23 01:04:10;;;;;;;32.20;19.20;;;;;;;2.45;100.00;100654.91;105910;1260;62181;-75
2024/03/23 01:06:38;;;;;;;37.60;19.80;;;;;;;2.50;100.00;100651.14;105790;1255;75451;-73
2024/03/23 01:09:06;;;;;;;35.50;20.30;;;;;;;2.50;100.00;100650.52;106238;1254;67324;-81
2024/03/23 01:11:33;;;;;;;36.10;19.80;;;;;;;2.58;100.00;100650.78;106320;1259;71086;-76
2024/03/23 01:14:01;;;;;;;37.60;20.90;;;;;;;2.63;100.00;100650.61;105932;1254;62216;-76
2024/03/23 01:16:28;;;;;;;39.00;19.80;;;;;;;2.67;100.00;100655.01;106186;1254;62130;-76
2024/03/23 01:18:56;;;;;;;38.20;20.60;;;;;;;2.72;100.00;100649.69;105885;1254;75421;-77
2024/03/23 01:21:24;;;;;;;32.80;19.30;;;;;;;2.76;100.00;100645.45;106013;1258;67163;-76
2024/03/23 01:23:51;;;;;;;38.50;21.10;;;;;;;2.83;100.00;100646.09;106075;1256;72686;-76
2024/03/23 01:26:19;;;;;;;34.50;19.10;;;;;;;2.86;100.00;100647.09;106534;1254;62144;-80
2024/03/23 01:28:47;;;;;;;35.20;19.30;;;;;;;2.86;100.00;100644.10;106014;1258;62095;-81
2024/03/23 01:31:15;;;;;;;36.10;19.50;;;;;;;2.86;100.00;100640.95;106002;1254;75439;-75
2024/03/23 01:33:43;;;;;;;36.30;18.90;;;;;;;2.96;100.00;100634.09;105893;1254;66840;-76
2024/03/23 01:36:11;;;;;;;33.80;18.80;;;;;;;3.02;100.00;100630.85;105954;1258;72727;-76
2024/03/23 01:38:38;;;;;;;32.90;19.00;;;;;;;3.02;100.00;100628.47;106597;1254;61957;-81
2024/03/23 01:41:06;;;;;;;33.80;20.40;;;;;;;3.03;100.00;100625.58;106564;1256;62043;-81
2024/03/23 01:43:34;;;;;;;37.90;20.20;;;;;;;3.07;100.00;100624.77;105964;1259;75487;-81
2024/03/23 01:46:01;;;;;;;34.80;19.40;;;;;;;3.08;100.00;100620.44;105897;1260;67297;-80
2024/03/23 01:48:29;;;;;;;35.90;20.70;;;;;;;3.13;100.00;100622.13;105884;1258;71352;-75
2024/03/23 01:50:56;;;;;;;34.70;19.90;;;;;;;3.18;100.00;100622.52;105779;1254;62311;-76
2024/03/23 01:53:24;;;;;;;38.10;20.10;;;;;;;3.21;100.00;100616.42;105911;1254;62130;-75
2024/03/23 01:55:52;;;;;;;36.20;19.70;;;;;;;3.21;100.00;100611.31;106345;1255;74174;-81
2024/03/23 01:58:19;;;;;;;32.00;18.30;;;;;;;3.25;100.00;100611.47;106058;1260;67233;-81
2024/03/23 02:00:47;;;;;;;34.40;19.80;;;;;;;3.29;100.00;100608.07;106063;1254;73016;-81
2024/03/23 02:03:27;;;;;;;36.90;20.00;;;;;;;3.32;100.00;100606.85;106006;1260;62065;-81
2024/03/23 02:05:55;;;;;;;38.20;21.00;;;;;;;3.37;100.00;100609.31;105689;1255;62305;-81
2024/03/23 02:08:23;;;;;;;36.90;20.00;;;;;;;3.39;100.00;100607.34;107132;1259;75416;-76
2024/03/23 02:10:51;;;;;;;34.00;19.80;;;;;;;3.39;100.00;100604.85;106103;1256;68488;-76
2024/03/23 02:13:18;;;;;;;38.00;21.00;;;;;;;3.40;100.00;100603.30;106076;1258;72687;-81
2024/03/23 02:15:46;;;;;;;34.30;19.90;;;;;;;3.38;100.00;100604.61;105991;1259;62086;-81
2024/03/23 02:18:14;;;;;;;32.80;19.20;;;;;;;3.37;100.00;100599.64;102867;1253;4389079;-81
2024/03/23 02:20:41;;;;;;;36.50;19.40;;;;;;;3.36;100.00;100596.23;106035;1257;62254;-76
2024/03/23 02:23:16;;;;;;;39.90;20.10;;;;;;;3.39;100.00;100597.45;106822;1253;62043;-76
2024/03/23 02:25:44;;;;;;;36.30;20.20;;;;;;;3.40;100.00;100597.35;105957;1255;71393;-75
2024/03/23 02:28:12;;;;;;;36.90;20.50;;;;;;;3.40;100.00;100595.98;105965;1254;62123;-75
2024/03/23 02:30:39;;;;;;;33.10;17.60;;;;;;;3.39;100.00;100594.04;106104;1253;61967;-76
2024/03/23 02:33:07;;;;;;;33.60;20.00;;;;;;;3.40;100.00;100593.52;105882;1258;74240;-75
2024/03/23 02:35:34;;;;;;;35.60;18.80;;;;;;;3.41;100.00;100587.66;106030;1257;67119;-76
2024/03/23 02:38:02;;;;;;;38.90;21.40;;;;;;;3.42;100.00;100584.23;106015;1254;71571;-81
2024/03/23 02:40:30;;;;;;;38.80;20.30;;;;;;;3.42;100.00;100584.98;106931;1259;62079;-81
2024/03/23 02:42:57;;;;;;;35.50;20.40;;;;;;;3.41;100.00;100582.08;105954;1259;62250;-81
2024/03/23 02:45:25;;;;;;;40.50;22.00;;;;;;;3.45;100.00;100580.00;105894;1260;74629;-75
2024/03/23 02:47:52;;;;;;;37.10;20.30;;;;;;;3.49;100.00;100573.98;105963;1258;68367;-76
2024/03/23 02:50:20;;;;;;;35.40;20.20;;;;;;;3.51;100.00;100570.15;106016;1259;73277;-81
2024/03/23 02:52:48;;;;;;;41.20;19.90;;;;;;;3.52;100.00;100570.23;105962;1260;62626;-81
2024/03/23 02:55:15;;;;;;;34.30;20.40;;;;;;;3.50;100.00;100567.92;107587;1258;60846;-81
2024/03/23 02:57:43;;;;;;;39.70;21.60;;;;;;;3.51;100.00;100562.45;106161;1254;74395;-76
2024/03/23 03:00:11;;;;;;;37.10;20.10;;;;;;;3.52;100.00;100563.69;106091;1257;67123;-81
2024/03/23 03:02:38;;;;;;;33.90;19.00;;;;;;;3.52;100.00;100560.66;105929;1259;73117;-81
2024/03/23 03:05:06;;;;;;;36.50;21.20;;;;;;;3.53;100.00;100559.64;105856;1256;62168;-81
2024/03/23 03:07:34;;;;;;;35.90;19.40;;;;;;;3.52;100.00;100556.63;105960;1254;62086;-76
2024/03/23 03:10:01;;;;;;;35.40;19.20;;;;;;;3.54;100.00;100555.52;106679;1257;74526;-81
2024/03/23 03:12:29;;;;;;;31.90;18.00;;;;;;;3.57;100.00;100551.06;105910;1259;67133;-81
2024/03/23 03:14:56;;;;;;;36.70;20.50;;;;;;;3.59;100.00;100549.70;106024;1258;72665;-76
2024/03/23 03:17:24;;;;;;;37.00;21.20;;;;;;;3.62;100.00;100548.40;105990;1258;62181;-76
2024/03/23 03:19:55;;;;;;;30.20;18.50;;;;;;;3.65;100.00;100548.16;106073;1257;61999;-76
2024/03/23 03:22:23;;;;;;;32.20;18.90;;;;;;;3.67;100.00;100550.52;105923;1257;74484;-81
2024/03/23 03:24:51;;;;;;;35.70;20.50;;;;;;;3.70;100.00;100551.12;106061;1257;67418;-81
2024/03/23 03:27:19;;;;;;;34.10;19.70;;;;;;;3.71;100.00;100551.73;106195;1258;74575;-76
2024/03/23 03:29:47;;;;;;;37.00;19.70;;;;;;;3.72;100.00;100551.88;106085;1255;62246;-80
2024/03/23 03:32:14;;;;;;;35.90;20.00;;;;;;;3.76;100.00;100551.92;105994;1254;62140;-81
2024/03/23 03:34:42;;;;;;;35.90;19.40;;;;;;;3.77;100.00;100552.22;105946;1257;79899;-76
2024/03/23 03:37:09;;;;;;;35.60;20.00;;;;;;;3.75;100.00;100546.67;106267;1256;67216;-76
2024/03/23 03:39:37;;;;;;;33.60;19.40;;;;;;;3.77;100.00;100550.67;106447;1254;72694;-76
2024/03/23 03:42:06;;;;;;;35.30;20.20;;;;;;;3.80;100.00;100550.58;106019;1255;62130;-81
2024/03/23 03:44:34;;;;;;;30.30;18.60;;;;;;;3.79;100.00;100552.71;106429;1255;62111;-81
2024/03/23 03:47:02;;;;;;;35.30;20.00;;;;;;;3.81;100.00;100551.69;106026;1257;75457;-81
2024/03/23 03:49:29;;;;;;;34.00;18.60;;;;;;;3.81;100.00;100547.96;106029;1259;67398;-76
2024/03/23 03:51:57;;;;;;;29.50;18.50;;;;;;;3.81;100.00;100547.36;105985;1259;72652;-81
2024/03/23 03:54:25;;;;;;;37.40;19.60;;;;;;;3.82;100.00;100546.73;105862;1258;62143;-81
2024/03/23 03:56:53;;;;;;;30.90;19.10;;;;;;;3.81;100.00;100546.91;105808;1257;62137;-81
2024/03/23 03:59:20;;;;;;;32.00;18.80;;;;;;;3.81;100.00;100539.97;106167;1254;75446;-81
2024/03/23 04:01:48;;;;;;;35.40;19.70;;;;;;;3.79;100.00;100536.98;106701;1254;67436;-76
2024/03/23 04:04:16;;;;;;;33.40;19.70;;;;;;;3.78;100.00;100536.56;105960;1257;72424;-81
2024/03/23 04:06:44;;;;;;;33.30;19.80;;;;;;;3.75;100.00;100536.40;106001;1254;62092;-82
2024/03/23 04:09:11;;;;;;;33.60;18.50;;;;;;;3.72;100.00;100533.67;106010;1260;62223;-81
2024/03/23 04:11:39;;;;;;;30.70;19.80;;;;;;;3.70;100.00;100535.36;105977;1255;77617;-76
2024/03/23 04:14:06;;;;;;;33.50;19.40;;;;;;;3.69;100.00;100536.34;106389;1254;67580;-81
2024/03/23 04:16:34;;;;;;;31.90;18.90;;;;;;;3.68;100.00;100535.30;106118;1256;71070;-76
2024/03/23 04:19:02;;;;;;;34.20;19.10;;;;;;;3.69;100.00;100531.80;106064;1257;62057;-80
2024/03/23 04:21:30;;;;;;;32.20;18.00;;;;;;;3.68;100.00;100535.36;105999;1254;62076;-76
2024/03/23 04:23:57;;;;;;;31.50;18.30;;;;;;;3.71;100.00;100531.86;105872;1257;74196;-81
2024/03/23 04:26:25;;;;;;;34.50;19.20;;;;;;;3.70;100.00;100530.16;105988;1254;68546;-81
2024/03/23 04:28:53;;;;;;;33.90;19.20;;;;;;;3.73;100.00;100530.33;105968;1257;71563;-76
2024/03/23 04:31:21;;;;;;;31.60;19.00;;;;;;;3.74;100.00;100528.36;105990;1256;62131;-81
2024/03/23 04:33:49;;;;;;;31.80;18.70;;;;;;;3.73;100.00;100526.66;106150;1254;62133;-81
2024/03/23 04:36:17;;;;;;;32.80;17.90;;;;;;;3.74;100.00;100530.59;106105;1257;75521;-75
2024/03/23 04:38:46;;;;;;;31.80;17.50;;;;;;;3.77;100.00;100526.88;105989;1254;68420;-76
2024/03/23 04:41:13;;;;;;;30.00;18.70;;;;;;;3.77;100.00;100526.50;105907;1253;71424;-81
2024/03/23 04:43:41;;;;;;;30.70;19.10;;;;;;;3.80;100.00;100525.50;105990;1254;62132;-76
2024/03/23 04:46:09;;;;;;;35.80;21.60;;;;;;;3.85;100.00;100523.60;106063;1266;62171;-82
2024/03/23 04:48:37;;;;;;;35.10;19.30;;;;;;;3.84;100.00;100524.98;105897;1254;75500;-82
2024/03/23 04:51:05;;;;;;;34.60;20.70;;;;;;;3.88;100.00;100523.25;106714;1257;68742;-82
2024/03/23 04:53:33;;;;;;;36.40;20.70;;;;;;;3.93;100.00;100523.42;105988;1257;72616;-76
2024/03/23 04:56:00;;;;;;;33.20;19.50;;;;;;;4.00;100.00;100519.37;106184;1259;62177;-76
2024/03/23 04:58:28;;;;;;;30.60;18.40;;;;;;;4.08;100.00;100516.85;105975;1256;62038;-82
2024/03/23 05:00:56;;;;;;;31.50;18.80;;;;;;;4.15;100.00;100517.65;105869;1254;75434;-76
2024/03/23 05:03:24;;;;;;;33.20;19.40;;;;;;;4.17;100.00;100512.79;105904;1254;68420;-82
2024/03/23 05:05:51;;;;;;;30.90;18.60;;;;;;;4.22;100.00;100509.98;105865;1257;73361;-76
2024/03/23 05:08:19;;;;;;;34.70;20.40;;;;;;;4.22;100.00;100511.73;106789;1254;62152;-76
2024/03/23 05:10:47;;;;;;;32.30;18.10;;;;;;;4.28;100.00;100509.05;106105;1254;62155;-76
2024/03/23 05:13:14;;;;;;;32.10;19.60;;;;;;;4.36;100.00;100510.02;107045;1254;75541;-76
2024/03/23 05:15:42;;;;;;;31.90;18.90;;;;;;;4.39;100.00;100506.63;106133;1256;67100;-82
2024/03/23 05:18:10;;;;;;;29.40;18.80;;;;;;;4.50;100.00;100503.30;105946;1257;72673;-82
2024/03/23 05:20:38;;;;;;;35.30;18.40;;;;;;;4.59;100.00;100499.21;106077;1257;62135;-81
2024/03/23 05:23:05;;;;;;;30.40;17.80;;;;;;;4.62;100.00;100494.73;106373;1253;62206;-81
2024/03/23 05:25:33;;;;;;;33.20;19.00;;;;;;;4.69;100.00;100493.69;106078;1257;75373;-76
2024/03/23 05:28:02;;;;;;;37.40;19.00;;;;;;;4.79;100.00;100495.81;105978;1257;67381;-76
2024/03/23 05:30:29;;;;;;;29.90;18.00;;;;;;;4.91;100.00;100494.19;106007;1255;72675;-76
2024/03/23 05:32:57;;;;;;;35.10;19.40;;;;;;;5.06;100.00;100492.83;105995;1257;62156;-75
2024/03/23 05:35:24;;;;;;;30.90;18.10;;;;;;;5.19;100.00;100491.09;106118;1255;62533;-81
2024/03/23 05:37:52;;;;;;;27.60;17.80;;;;;;;5.32;100.00;100483.63;107402;1257;75440;-81
2024/03/23 05:40:20;;;;;;;31.40;18.10;;;;;;;5.45;100.00;100486.40;106035;1254;67588;-76
2024/03/23 05:42:47;;;;;;;32.50;20.40;;;;;;;5.54;100.00;100482.05;106053;1254;71203;-81
2024/03/23 05:45:18;;;;;;;31.60;18.60;;;;;;;5.67;100.00;100480.85;105975;1258;62078;-80
2024/03/23 05:47:48;;;;;;;32.20;18.60;;;;;;;5.83;100.00;100479.06;106071;1254;61967;-81
2024/03/23 05:50:16;;;;;;;32.50;18.00;;;;;;;5.96;100.00;100480.05;105969;1254;75902;-76
2024/03/23 05:52:43;;;;;;;33.10;19.20;;;;;;;6.13;100.00;100475.41;106093;1254;68508;-81
2024/03/23 05:55:11;;;;;;;31.40;19.20;;;;;;;6.29;100.00;100470.21;106772;1254;72642;-76
2024/03/23 05:57:39;;;;;;;28.70;17.90;;;;;;;6.45;100.00;100467.77;106111;1257;61941;-80
2024/03/23 06:00:15;;;;;;;29.40;17.20;;;;;;;6.64;100.00;100467.80;106030;1253;62204;-80
2024/03/23 06:02:44;;;;;;;30.30;17.80;;;;;;;6.82;100.00;100468.11;105959;1254;75459;-75
2024/03/23 06:05:12;;;;;;;28.30;17.00;;;;;;;7.01;100.00;100466.91;105953;1257;68364;-81
2024/03/23 06:07:39;;;;;;;29.40;16.90;;;;;;;7.17;100.00;100468.61;107881;1254;72720;-81
2024/03/23 06:10:07;;;;;;;28.10;17.30;;;;;;;7.28;100.00;100470.63;105804;1254;62359;-80
2024/03/23 06:12:35;;;;;;;27.80;16.30;;;;;;;7.42;100.00;100466.17;105939;1254;62066;-81
2024/03/23 06:15:03;;;;;;;26.70;16.20;;;;;;;7.56;100.00;100471.79;106062;1254;75473;-81
2024/03/23 06:17:31;;;;;;;25.70;16.60;;;;;;;7.72;100.00;100471.87;106119;1253;68718;-81
2024/03/23 06:19:58;;;;;;;29.00;16.50;;;;;;;7.90;100.00;100469.46;105964;1257;73237;-75
2024/03/23 06:22:26;;;;;;;27.80;17.30;;;;;;;8.07;100.00;100461.30;106057;1254;62144;-75
2024/03/23 06:24:54;;;;;;;24.50;14.90;;;;;;;8.20;100.00;100464.48;108715;1254;61974;-80
2024/03/23 06:27:21;;;;;;;25.90;15.00;;;;;;;8.31;100.00;100459.38;106500;1253;76045;-81
2024/03/23 06:29:49;;;;;;;24.40;15.00;;;;;;;8.53;100.00;100457.44;106239;1254;67099;-81
2024/03/23 06:32:17;;;;;;;23.20;14.40;;;;;;;8.76;100.00;100458.14;105979;1254;71516;-81
2024/03/23 06:34:44;;;;;;;22.40;13.80;;;;;;;8.97;100.00;100463.00;106116;1257;62171;-81
2024/03/23 06:37:12;;;;;;;26.80;15.00;;;;;;;9.13;100.00;100459.77;105962;1257;61986;-81
2024/03/23 06:39:40;;;;;;;25.90;14.70;;;;;;;9.29;100.00;100465.95;106277;1253;75497;-81
2024/03/23 06:42:08;;;;;;;24.60;13.90;;;;;;;9.45;100.00;100466.31;106501;1254;67121;-81
2024/03/23 06:44:35;;;;;;;23.00;14.10;;;;;;;9.62;100.00;100462.56;105998;1254;70996;-80
2024/03/23 06:47:03;;;;;;;26.10;14.00;;;;;;;9.75;100.00;100459.39;105972;1255;62097;-81
2024/03/23 06:49:31;;;;;;;20.40;13.00;;;;;;;9.90;100.00;100460.21;105851;1254;62065;-80
2024/03/23 06:51:58;;;;;;;19.80;12.60;;;;;;;10.00;100.00;100459.74;105989;1258;75447;-79
2024/03/23 06:54:26;;;;;;;22.70;13.50;;;;;;;10.19;100.00;100462.05;105980;1257;67648;-80
2024/03/23 06:56:53;;;;;;;22.00;13.40;;;;;;;10.37;100.00;100461.77;106897;1255;71917;-80
2024/03/23 06:59:21;;;;;;;23.20;12.20;;;;;;;10.55;100.00;100460.84;105949;1254;62153;-74
2024/03/23 07:01:49;;;;;;;19.20;12.40;;;;;;;10.69;100.00;100461.05;106143;1253;62108;-75
2024/03/23 07:04:16;;;;;;;21.60;11.40;;;;;;;10.87;100.00;100456.66;106091;1254;75396;-75
2024/03/23 07:06:44;;;;;;;20.90;11.90;;;;;;;11.05;100.00;100454.04;105958;1258;67422;-75
2024/03/23 07:09:12;;;;;;;18.50;11.10;;;;;;;11.24;100.00;100452.45;106026;1254;71457;-76
2024/03/23 07:11:40;;;;;;;18.20;10.80;;;;;;;11.41;100.00;100454.47;106561;1254;62121;-75
2024/03/23 07:14:08;;;;;;;17.80;10.90;;;;;;;11.60;100.00;100448.80;106078;1254;62152;-74
2024/03/23 07:16:35;;;;;;;17.80;10.50;;;;;;;11.74;100.00;100449.55;106046;1254;77994;-75
2024/03/23 07:19:03;;;;;;;20.40;11.10;;;;;;;11.82;100.00;100447.52;106086;1254;67667;-75
2024/03/23 07:21:30;;;;;;;18.50;10.10;;;;;;;11.95;100.00;100447.10;105969;1253;72631;-75
2024/03/23 07:23:58;;;;;;;19.80;11.40;;;;;;;12.03;100.00;100440.77;106289;1254;62041;-76
2024/03/23 07:26:26;;;;;;;16.30;10.90;;;;;;;12.13;100.00;100438.92;106015;1254;61963;-75
2024/03/23 07:28:53;;;;;;;19.10;11.00;;;;;;;12.23;100.00;100435.76;106447;1256;75479;-75
2024/03/23 07:31:22;;;;;;;17.30;10.50;;;;;;;12.34;100.00;100434.64;105951;1254;68421;-76
2024/03/23 07:33:50;;;;;;;18.30;10.20;;;;;;;12.51;100.00;100434.50;105841;1259;72434;-75
2024/03/23 07:36:18;;;;;;;16.60;9.70;;;;;;;12.69;100.00;100426.33;106193;1254;62044;-76
2024/03/23 07:38:45;;;;;;;15.70;9.30;;;;;;;12.81;100.00;100425.27;106076;1257;61961;-75
2024/03/23 07:41:22;;;;;;;15.20;8.70;;;;;;;12.94;100.00;100421.42;106711;1254;75799;-77
2024/03/23 07:43:51;;;;;;;16.30;9.00;;;;;;;13.02;99.37;100420.11;105971;1254;68874;-76
2024/03/23 07:46:19;;;;;;;16.50;8.80;;;;;;;13.10;95.78;100418.25;106142;1254;71818;-76
2024/03/23 07:48:47;;;;;;;13.80;8.10;;;;;;;13.18;94.43;100420.54;106135;1254;62173;-76
2024/03/23 07:51:20;;;;;;;13.70;8.40;;;;;;;13.26;89.08;100413.17;106049;1254;62084;-81
2024/03/23 07:53:50;;;;;;;16.40;8.10;;;;;;;13.33;83.94;100419.73;105943;1254;74251;-76
2024/03/23 07:56:18;;;;;;;14.40;8.30;;;;;;;13.41;86.01;100422.08;106762;1253;66151;-80
2024/03/23 07:58:46;;;;;;;14.90;8.70;;;;;;;13.55;83.21;100418.72;105913;1254;72401;-80
2024/03/23 08:01:15;;;;;;;14.10;8.30;;;;;;;13.70;81.30;100415.83;106109;1254;62079;-76
2024/03/23 08:03:44;;;;;;;13.10;7.70;;;;;;;13.89;77.97;100413.48;105943;1254;62215;-76
2024/03/23 08:06:13;;;;;;;12.40;7.70;;;;;;;14.07;78.22;100414.50;105939;1255;75415;-76
2024/03/23 08:08:42;;;;;;;11.70;7.70;;;;;;;14.27;77.43;100405.71;105927;1257;67315;-76
2024/03/23 08:11:10;;;;;;;13.40;7.30;;;;;;;14.47;74.09;100408.34;106479;1253;72661;-80
2024/03/23 08:13:41;;;;;;;15.60;8.00;;;;;;;14.67;72.52;100398.82;107235;1256;62185;-80
2024/03/23 08:16:09;;;;;;;13.30;7.50;;;;;;;14.84;70.14;100396.46;106032;1257;61976;-76
2024/03/23 08:18:37;;;;;;;12.80;7.00;;;;;;;14.98;69.94;100397.09;106056;1253;75474;-77
2024/03/23 08:21:05;;;;;;;13.10;6.70;;;;;;;15.13;67.92;100394.71;106086;1257;67690;-76
2024/03/23 08:23:36;;;;;;;14.60;7.50;;;;;;;15.27;65.12;100395.27;105804;1260;72680;-80
2024/03/23 08:26:08;;;;;;;16.60;8.60;;;;;;;15.40;63.77;100392.69;106041;1257;62091;-81
2024/03/23 08:28:36;;;;;;;;;;;;;;;15.54;57.81;100386.86;106655;1254;61983;-76
2024/03/23 08:31:05;;;;;;;11.00;6.80;;;;;;;15.59;57.39;100382.58;105941;1253;74219;-76
2024/03/23 08:33:33;;;;;;;12.20;7.30;;;;;;;15.70;57.58;100382.43;106075;1257;67446;-76
2024/03/23 08:36:03;;;;;;;12.20;6.70;;;;;;;15.84;56.59;100379.54;106049;1253;71458;-76
2024/03/23 08:38:31;;;;;;;12.50;7.20;;;;;;;15.94;55.69;100381.04;105948;1253;62273;-78
2024/03/23 08:41:09;;;;;;;12.00;7.00;;;;;;;15.94;55.89;100375.07;106030;1254;62113;-80
2024/03/23 08:43:39;;;;;;;12.60;6.80;;;;;;;16.06;55.08;100374.73;106041;1253;77360;-76
2024/03/23 08:46:07;;;;;;;16.10;6.80;;;;;;;16.19;54.80;100366.68;106034;1254;71114;-76
2024/03/23 08:48:37;;;;;;;10.60;6.40;;;;;;;16.30;53.57;100365.67;106344;1257;74702;-79
2024/03/23 08:51:08;;;;;;;12.90;7.60;;;;;;;16.41;53.43;100357.34;106496;1254;62136;-77
2024/03/23 08:53:36;;;;;;;10.00;6.50;;;;;;;16.48;52.43;100359.49;106168;1254;62117;-81
2024/03/23 08:56:04;;;;;;;17.10;6.80;;;;;;;16.62;49.87;100353.55;106954;1254;77135;-76
2024/03/23 08:58:32;;;;;;;11.60;6.60;;;;;;;16.68;49.08;100357.61;105894;1254;68660;-81
2024/03/23 09:01:08;;;;;;;12.30;6.50;;;;;;;16.66;48.80;100350.41;105991;1254;72674;-76
2024/03/23 09:03:36;;;;;;;9.90;6.70;;;;;;;16.61;48.92;100342.68;105954;1257;62146;-77
2024/03/23 09:06:12;;;;;;;9.70;6.40;;;;;;;16.60;48.65;100339.49;106081;1254;62511;-77
2024/03/23 09:08:40;;;;;;;10.80;6.10;;;;;;;16.66;49.52;100340.42;106547;1254;77852;-76
2024/03/23 09:11:12;;;;;;;10.20;6.40;;;;;;;16.71;48.39;100337.02;106498;1254;70619;-77
2024/03/23 09:13:41;;;;;;;9.00;5.80;;;;;;;16.65;46.15;100335.70;106021;1254;75189;-77
2024/03/23 09:16:09;;;;;;;10.10;5.90;;;;;;;16.56;47.07;100327.88;105917;1254;62122;-76
2024/03/23 09:18:38;;;;;;;10.40;6.20;;;;;;;16.58;46.12;100327.90;105866;1254;62403;-81
2024/03/23 09:21:15;;;;;;;6.80;5.40;;;;;;;16.61;45.20;100328.30;105847;1257;76456;-81
2024/03/23 09:23:43;;;;;;;9.00;6.00;;;;;;;16.60;45.14;100323.10;105890;1254;68811;-81
2024/03/23 09:26:11;;;;;;;13.00;5.30;;;;;;;16.65;45.76;100319.35;105887;1254;73789;-81
2024/03/23 09:28:39;;;;;;;11.10;6.70;;;;;;;16.71;45.22;100315.58;106451;1257;61941;-81
2024/03/23 09:31:07;;;;;;;8.00;5.10;;;;;;;16.77;45.71;100310.60;106215;1257;61332;-82
2024/03/23 09:33:35;;;;;;;10.40;6.50;;;;;;;16.87;45.83;100309.86;106142;1254;77874;-77
2024/03/23 09:36:06;;;;;;;9.90;5.80;;;;;;;17.03;45.64;100306.94;109133;1253;70311;-82
2024/03/23 09:38:34;;;;;;;10.10;5.40;;;;;;;17.17;46.06;100303.74;109293;1254;73587;-77
2024/03/23 09:41:06;;;;;;;8.30;5.30;;;;;;;17.38;45.71;100297.27;109102;1254;60670;-81
2024/03/23 09:43:35;;;;;;;9.30;5.50;;;;;;;17.57;45.42;100293.77;108873;1253;61150;-79
2024/03/23 09:46:02;;;;;;;9.10;5.60;;;;;;;17.67;45.26;100282.88;105984;1254;76713;-75
2024/03/23 09:48:30;;;;;;;9.20;5.90;;;;;;;17.74;44.02;100281.09;105975;1257;67448;-81
2024/03/23 09:50:59;;;;;;;8.70;5.20;;;;;;;17.76;43.68;100274.32;106099;1254;75226;-82
2024/03/23 09:53:26;;;;;;;10.60;5.40;;;;;;;17.77;43.19;100273.98;105812;1254;62133;-76
2024/03/23 09:55:54;;;;;;;9.70;5.80;;;;;;;17.74;43.41;100267.77;106056;1257;62044;-76
2024/03/23 09:58:23;;;;;;;9.80;5.80;;;;;;;17.69;43.37;100268.50;105988;1257;78011;-76
2024/03/23 10:00:51;;;;;;;8.90;5.60;;;;;;;17.60;43.51;100260.73;105911;1257;70809;-76
2024/03/23 10:03:18;;;;;;;9.60;5.10;;;;;;;17.57;44.46;100260.69;106814;1254;74750;-77
2024/03/23 10:05:46;;;;;;;8.20;5.60;;;;;;;17.69;44.99;100260.45;106154;1253;62802;-77
2024/03/23 10:08:15;;;;;;;9.90;5.60;;;;;;;17.81;44.28;100259.64;106499;1254;62152;-82
2024/03/23 10:10:43;;;;;;;8.50;4.70;;;;;;;17.92;43.83;100256.94;105958;1257;76905;-81
2024/03/23 10:13:14;;;;;;;10.60;5.20;;;;;;;17.87;44.20;100256.31;106127;1256;70592;-82
2024/03/23 10:15:42;;;;;;;10.40;5.20;;;;;;;17.94;43.95;100248.41;105954;1253;75419;-81
2024/03/23 10:18:15;;;;;;;7.30;4.40;;;;;;;18.10;44.08;100240.80;105997;1253;62171;-81
2024/03/23 10:20:44;;;;;;;8.30;5.10;;;;;;;18.25;44.19;100233.48;106748;1254;62049;-81
2024/03/23 10:23:18;;;;;;;8.50;5.60;;;;;;;18.43;43.80;100229.90;106290;1257;77581;-82
2024/03/23 10:25:46;;;;;;;10.50;5.50;;;;;;;18.54;42.74;100232.55;106158;1252;69903;-77
2024/03/23 10:28:14;;;;;;;8.40;5.40;;;;;;;18.56;42.88;100230.70;106010;1257;74740;-81
2024/03/23 10:30:41;;;;;;;7.90;5.00;;;;;;;18.57;42.54;100225.77;106668;1254;62135;-76
2024/03/23 10:33:10;;;;;;;8.10;5.10;;;;;;;18.53;41.57;100224.90;107383;1254;63637;-76
2024/03/23 10:35:38;;;;;;;11.30;5.10;;;;;;;18.40;42.23;100224.42;106425;1257;74228;-76
2024/03/23 10:38:09;;;;;;;6.90;4.40;;;;;;;18.31;42.27;100216.26;105987;1254;66812;-81
2024/03/23 10:40:37;;;;;;;10.40;5.00;;;;;;;18.29;42.83;100215.23;105985;1254;75387;-81
2024/03/23 10:43:05;;;;;;;7.70;4.70;;;;;;;18.23;43.19;100209.65;106185;1253;62236;-81
2024/03/23 10:45:32;;;;;;;8.50;4.80;;;;;;;18.19;42.98;100212.17;106001;1256;62213;-76
2024/03/23 10:48:02;;;;;;;6.90;5.00;;;;;;;18.24;43.02;100204.05;105951;1259;76656;-80
2024/03/23 10:50:30;;;;;;;6.30;5.00;;;;;;;18.14;42.57;100202.27;106973;1254;70360;-80
2024/03/23 10:52:59;;;;;;;11.50;5.50;;;;;;;17.93;43.23;100201.58;105951;1259;73821;-80
2024/03/23 10:55:28;;;;;;;6.30;4.60;;;;;;;17.77;43.96;100200.71;106053;1253;62126;-75
2024/03/23 10:57:55;;;;;;;9.50;5.50;;;;;;;17.63;44.67;100197.37;106030;1259;62431;-75
2024/03/23 11:00:24;;;;;;;8.90;5.50;;;;;;;17.51;45.14;100200.39;105980;1254;76415;-75
2024/03/23 11:02:51;;;;;;;7.10;4.60;;;;;;;17.43;45.69;100198.05;106011;1257;69732;-81
2024/03/23 11:05:29;;;;;;;7.30;4.50;;;;;;;17.44;45.95;100197.55;106089;1254;74065;-79
2024/03/23 11:07:57;;;;;;;9.00;5.40;;;;;;;17.50;45.89;100194.97;107039;1254;62519;-80